createdAt,value
2023-10-13T00:01:08.185Z,100.00
2023-10-13T00:11:14.252Z,100.00
2023-10-13T00:21:21.018Z,100.00
2023-10-13T00:31:23.057Z,100.00
2023-10-13T00:41:44.478Z,100.00
2023-10-13T00:51:48.824Z,100.00
2023-10-13T01:01:55.935Z,100.00
2023-10-13T01:11:57.558Z,100.00
2023-10-13T01:22:05.011Z,100.00
2023-10-13T01:32:06.703Z,100.00
2023-10-13T01:42:08.165Z,100.00
2023-10-13T01:52:13.322Z,100.00
2023-10-13T02:02:15.762Z,100.00
2023-10-13T02:12:17.309Z,100.00
2023-10-13T02:22:33.040Z,100.00
2023-10-13T02:32:41.440Z,100.00
2023-10-13T02:42:42.870Z,100.00
2023-10-13T02:52:49.069Z,100.00
2023-10-13T03:02:59.423Z,100.00
2023-10-13T03:13:01.121Z,100.00
2023-10-13T03:23:10.470Z,100.00
2023-10-13T03:33:26.464Z,100.00
2023-10-13T03:43:30.965Z,100.00
2023-10-13T03:53:36.786Z,100.00
2023-10-13T04:03:38.723Z,100.00
2023-10-13T04:13:58.743Z,100.00
2023-10-13T04:24:18.195Z,100.00
2023-10-13T04:34:28.971Z,100.00
2023-10-13T04:44:42.317Z,100.00
2023-10-13T04:55:10.990Z,100.00
2023-10-13T05:05:14.698Z,100.00
2023-10-13T05:15:36.435Z,100.00
2023-10-13T05:25:57.445Z,100.00
2023-10-13T05:36:17.274Z,100.00
2023-10-13T05:46:36.612Z,100.00
2023-10-13T05:56:56.514Z,100.00
2023-10-13T06:07:16.272Z,100.00
2023-10-13T06:17:36.324Z,100.00
2023-10-13T06:27:56.253Z,100.00
2023-10-13T06:38:01.645Z,100.00
2023-10-13T06:48:03.307Z,100.00
2023-10-13T06:58:07.563Z,100.00
2023-10-13T07:08:10.108Z,100.00
2023-10-13T07:18:23.974Z,100.00
2023-10-13T07:28:25.587Z,100.00
2023-10-13T07:38:31.706Z,100.00
2023-10-13T07:48:34.525Z,100.00
2023-10-13T07:58:53.672Z,100.00
2023-10-13T08:08:56.056Z,100.00
2023-10-13T08:18:57.666Z,100.00
2023-10-13T08:29:22.122Z,100.00
2023-10-13T08:39:44.144Z,100.00
2023-10-13T08:49:53.499Z,100.00
2023-10-13T08:59:55.112Z,100.00
2023-10-13T09:09:58.471Z,100.00
2023-10-13T09:20:21.964Z,100.00
2023-10-13T09:30:24.894Z,100.00
2023-10-13T09:40:26.660Z,100.00
2023-10-13T09:50:34.812Z,100.00
2023-10-13T10:00:43.765Z,100.00
2023-10-13T10:10:57.891Z,100.00
2023-10-13T10:21:08.921Z,96.55
2023-10-13T10:31:17.763Z,98.87
2023-10-13T10:41:27.210Z,97.43
2023-10-13T10:51:32.737Z,95.84
2023-10-13T11:01:47.898Z,94.68
2023-10-13T11:11:53.695Z,91.70
2023-10-13T11:21:56.793Z,93.91
2023-10-13T11:32:00.832Z,92.48
2023-10-13T11:42:02.236Z,91.66
2023-10-13T11:52:24.380Z,89.09
2023-10-13T12:02:26.126Z,91.59
2023-10-13T12:12:29.102Z,87.59
2023-10-13T12:22:36.677Z,89.00
2023-10-13T12:32:38.259Z,86.89
2023-10-13T12:42:58.137Z,88.00
2023-10-13T12:53:00.909Z,83.87
2023-10-13T13:03:12.218Z,87.98
2023-10-13T13:13:14.894Z,83.57
2023-10-13T13:23:18.712Z,83.46
2023-10-13T13:33:24.904Z,82.50
2023-10-13T13:43:39.511Z,79.46
2023-10-13T13:53:49.411Z,81.94
2023-10-13T14:03:51.838Z,77.09
2023-10-13T14:13:57.070Z,77.72
2023-10-13T14:24:01.731Z,77.20
2023-10-13T14:34:03.142Z,78.72
2023-10-13T14:44:08.180Z,79.58
2023-10-13T14:54:09.718Z,77.92
2023-10-13T15:04:11.270Z,78.02
2023-10-13T15:14:14.362Z,79.96
2023-10-13T15:24:25.831Z,78.48
2023-10-13T15:34:29.690Z,80.42
2023-10-13T15:44:35.373Z,78.85
2023-10-13T15:54:36.964Z,78.14
2023-10-13T16:04:38.455Z,78.73
2023-10-13T16:14:41.145Z,77.90
2023-10-13T16:24:42.641Z,79.17
2023-10-13T16:34:44.088Z,78.08
2023-10-13T16:44:45.626Z,78.93
2023-10-13T16:54:47.090Z,78.04
2023-10-13T17:04:48.539Z,83.29
2023-10-13T17:14:51.443Z,84.64
2023-10-13T17:24:53.479Z,86.92
2023-10-13T17:34:54.922Z,89.31
2023-10-13T17:44:56.576Z,87.47
2023-10-13T17:54:58.015Z,89.91
2023-10-13T18:05:01.225Z,92.59
2023-10-13T18:15:02.815Z,93.98
2023-10-13T18:25:05.628Z,93.87
2023-10-13T18:35:09.649Z,93.61
2023-10-13T18:45:20.809Z,94.02
2023-10-13T18:55:22.238Z,94.38
2023-10-13T19:05:23.693Z,94.23
2023-10-13T19:15:27.777Z,95.13
2023-10-13T19:25:35.338Z,96.20
2023-10-13T19:35:43.504Z,95.53
2023-10-13T19:45:45.043Z,96.89
2023-10-13T19:55:47.201Z,100.00
2023-10-13T20:05:48.617Z,100.00
2023-10-13T20:15:50.039Z,100.00
2023-10-13T20:25:53.903Z,100.00
2023-10-13T20:35:56.588Z,100.00
2023-10-13T20:46:02.828Z,100.00
2023-10-13T20:56:06.223Z,100.00
2023-10-13T21:06:11.807Z,100.00
2023-10-13T21:16:13.419Z,100.00
2023-10-13T21:26:22.947Z,100.00
2023-10-13T21:36:28.470Z,100.00
2023-10-13T21:46:30.913Z,100.00
2023-10-13T21:56:32.911Z,100.00
2023-10-13T22:06:36.689Z,100.00
2023-10-13T22:16:39.608Z,100.00
2023-10-13T22:26:41.023Z,100.00
2023-10-13T22:36:55.200Z,100.00
2023-10-13T22:47:01.619Z,100.00
2023-10-13T22:57:05.669Z,100.00
2023-10-13T23:07:18.139Z,100.00
2023-10-13T23:27:23.316Z,100.00
2023-10-13T23:37:31.782Z,100.00
2023-10-13T23:47:33.411Z,100.00
2023-10-13T23:57:38.343Z,100.00
